createdAt,value
2019-04-04T00:00:31.508Z,11.74
2019-04-04T00:01:36.780Z,11.77
2019-04-04T00:02:40.446Z,11.81
2019-04-04T00:03:44.195Z,11.75
2019-04-04T00:04:47.912Z,11.75
2019-04-04T00:05:51.561Z,11.75
2019-04-04T00:06:57.829Z,11.77
2019-04-04T00:08:00.689Z,11.75
2019-04-04T00:09:08.095Z,11.76
2019-04-04T00:10:13.329Z,11.77
2019-04-04T00:11:17.282Z,11.77
2019-04-04T00:12:21.047Z,11.71
2019-04-04T00:13:24.624Z,11.70
2019-04-04T00:14:28.375Z,11.68
2019-04-04T00:15:32.093Z,11.65
2019-04-04T00:16:35.832Z,11.52
2019-04-04T00:17:39.863Z,11.53
2019-04-04T00:18:43.557Z,11.51
2019-04-04T00:19:47.305Z,11.40
2019-04-04T00:20:51.010Z,11.37
2019-04-04T00:21:54.672Z,11.46
2019-04-04T00:22:58.403Z,11.46
2019-04-04T00:24:02.142Z,11.56
2019-04-04T00:25:09.672Z,11.54
2019-04-04T00:26:12.016Z,11.52
2019-04-04T00:27:15.643Z,11.55
2019-04-04T00:28:19.365Z,11.61
2019-04-04T00:29:23.050Z,11.65
2019-04-04T00:30:26.750Z,11.59
2019-04-04T00:31:30.486Z,11.55
2019-04-04T00:32:34.220Z,11.57
2019-04-04T00:33:37.932Z,11.58
2019-04-04T00:34:41.633Z,11.63
2019-04-04T00:35:45.331Z,11.65
2019-04-04T00:36:49.050Z,11.69
2019-04-04T00:37:52.794Z,11.70
2019-04-04T00:38:56.480Z,11.71
2019-04-04T00:40:00.219Z,11.68
2019-04-04T00:41:04.194Z,11.64
2019-04-04T00:42:07.898Z,11.61
2019-04-04T00:43:11.963Z,11.60
2019-04-04T00:44:15.667Z,11.57
2019-04-04T00:45:19.385Z,11.42
2019-04-04T00:46:23.163Z,11.38
2019-04-04T00:47:26.821Z,11.38
2019-04-04T00:48:32.204Z,11.40
2019-04-04T00:49:36.220Z,11.38
2019-04-04T00:50:39.980Z,11.32
2019-04-04T00:51:43.657Z,11.29
2019-04-04T00:52:47.296Z,11.30
2019-04-04T00:53:50.997Z,11.30
2019-04-04T00:54:54.664Z,11.31
2019-04-04T00:55:58.296Z,11.34
2019-04-04T00:57:01.982Z,11.36
2019-04-04T00:58:05.615Z,11.30
2019-04-04T00:59:09.320Z,11.24
2019-04-04T01:00:13.514Z,11.22
2019-04-04T01:01:17.220Z,11.20
2019-04-04T01:02:20.925Z,11.13
2019-04-04T01:03:24.647Z,11.10
2019-04-04T01:04:30.743Z,11.08
2019-04-04T01:05:33.895Z,10.99
2019-04-04T01:06:37.613Z,10.88
2019-04-04T01:07:41.283Z,10.88
2019-04-04T01:08:44.956Z,10.88
2019-04-04T01:09:48.591Z,10.98
2019-04-04T01:10:52.264Z,10.98
2019-04-04T01:11:56.737Z,10.98
2019-04-04T01:13:00.431Z,10.93
2019-04-04T01:14:04.146Z,10.96
2019-04-04T01:15:08.158Z,10.96
2019-04-04T01:16:11.865Z,10.95
2019-04-04T01:17:15.596Z,10.97
2019-04-04T01:18:19.348Z,11.00
2019-04-04T01:19:23.778Z,10.97
2019-04-04T01:20:27.922Z,10.89
2019-04-04T01:21:31.622Z,10.89
2019-04-04T01:22:35.342Z,10.75
2019-04-04T01:23:41.287Z,10.82
2019-04-04T01:24:44.466Z,10.82
2019-04-04T01:25:48.198Z,10.81
2019-04-04T01:26:51.936Z,10.81
2019-04-04T01:27:55.670Z,10.70
2019-04-04T01:28:59.346Z,10.69
2019-04-04T01:30:03.414Z,10.74
2019-04-04T01:31:07.148Z,10.77
2019-04-04T01:32:30.159Z,10.71
2019-04-04T01:33:33.875Z,10.71
2019-04-04T01:34:37.551Z,10.61
2019-04-04T01:35:41.207Z,10.62
2019-04-04T01:36:44.851Z,10.61
2019-04-04T01:37:48.589Z,10.57
2019-04-04T01:38:52.255Z,10.49
2019-04-04T01:39:55.949Z,10.49
2019-04-04T01:40:59.587Z,10.55
2019-04-04T01:42:03.131Z,10.56
2019-04-04T01:43:08.814Z,10.56
2019-04-04T01:44:12.214Z,10.59
2019-04-04T01:45:15.975Z,10.59
2019-04-04T01:46:19.645Z,10.58
2019-04-04T01:47:23.283Z,10.52
2019-04-04T01:48:26.845Z,10.58
2019-04-04T01:49:30.406Z,10.57
2019-04-04T01:50:34.084Z,10.57
2019-04-04T01:51:37.747Z,10.50
2019-04-04T01:52:41.306Z,10.48
2019-04-04T01:53:45.352Z,10.48
2019-04-04T01:54:49.084Z,10.46
2019-04-04T01:55:52.753Z,10.46
2019-04-04T01:56:56.357Z,10.39
2019-04-04T01:57:59.985Z,10.46
2019-04-04T01:59:03.712Z,10.35
2019-04-04T02:00:10.425Z,10.37
2019-04-04T02:01:16.243Z,10.37
2019-04-04T02:02:20.182Z,10.41
2019-04-04T02:03:23.856Z,10.41
2019-04-04T02:04:27.481Z,10.43
2019-04-04T02:05:31.135Z,10.45
2019-04-04T02:06:35.147Z,10.47
2019-04-04T02:07:38.817Z,10.43
2019-04-04T02:08:42.482Z,10.43
2019-04-04T02:09:46.476Z,10.44
2019-04-04T02:10:50.463Z,10.41
2019-04-04T02:11:54.151Z,10.41
2019-04-04T02:12:58.128Z,10.38
2019-04-04T02:14:01.762Z,10.36
2019-04-04T02:15:08.446Z,10.35
2019-04-04T02:16:12.089Z,10.34
2019-04-04T02:17:15.782Z,10.34
2019-04-04T02:18:19.420Z,10.32
2019-04-04T02:19:24.823Z,10.32
2019-04-04T02:20:28.465Z,10.27
2019-04-04T02:21:32.076Z,10.30
2019-04-04T02:22:35.767Z,10.30
2019-04-04T02:23:39.412Z,10.26
2019-04-04T02:24:43.099Z,10.31
2019-04-04T02:25:46.749Z,10.34
2019-04-04T02:26:50.412Z,10.33
2019-04-04T02:27:54.113Z,10.27
2019-04-04T02:28:57.763Z,10.27
2019-04-04T02:30:01.416Z,10.21
2019-04-04T02:31:06.540Z,10.21
2019-04-04T02:32:11.900Z,10.21
2019-04-04T02:33:15.568Z,10.19
2019-04-04T02:34:19.239Z,10.18
2019-04-04T02:35:22.872Z,10.06
2019-04-04T02:36:26.554Z,10.07
2019-04-04T02:37:30.197Z,10.14
2019-04-04T02:38:33.874Z,10.14
2019-04-04T02:39:37.530Z,10.09
2019-04-04T02:40:42.249Z,10.08
2019-04-04T02:41:48.483Z,9.92
2019-04-04T02:42:53.951Z,9.76
2019-04-04T02:43:59.408Z,9.84
2019-04-04T02:45:05.137Z,9.91
2019-04-04T02:46:11.201Z,9.93
2019-04-04T02:47:16.803Z,9.78
2019-04-04T02:48:23.162Z,9.78
2019-04-04T02:49:28.108Z,9.81
2019-04-04T02:50:29.209Z,9.82
2019-04-04T02:51:32.848Z,9.84
2019-04-04T02:52:36.515Z,9.81
2019-04-04T02:53:40.529Z,9.81
2019-04-04T02:54:44.239Z,9.80
2019-04-04T02:55:47.960Z,9.73
2019-04-04T02:56:51.609Z,9.78
2019-04-04T02:57:55.249Z,9.78
2019-04-04T02:58:58.886Z,9.78
2019-04-04T03:00:02.678Z,9.78
2019-04-04T03:01:06.286Z,9.72
2019-04-04T03:02:10.306Z,9.78
2019-04-04T03:03:13.938Z,9.78
2019-04-04T03:04:17.590Z,9.76
2019-04-04T03:05:21.217Z,9.73
2019-04-04T03:06:25.168Z,9.73
2019-04-04T03:07:30.837Z,9.74
2019-04-04T03:08:36.765Z,9.60
2019-04-04T03:09:42.507Z,9.42
2019-04-04T03:10:47.715Z,9.41
2019-04-04T03:11:53.538Z,9.45
2019-04-04T03:12:58.684Z,9.50
2019-04-04T03:14:03.746Z,9.51
2019-04-04T03:15:10.971Z,9.52
2019-04-04T03:16:14.629Z,9.51
2019-04-04T03:17:18.275Z,9.51
2019-04-04T03:18:21.908Z,9.48
2019-04-04T03:19:25.567Z,9.48
2019-04-04T03:20:29.181Z,9.48
2019-04-04T03:21:32.884Z,9.48
2019-04-04T03:22:36.628Z,9.47
2019-04-04T03:23:40.250Z,9.44
2019-04-04T03:24:45.123Z,9.40
2019-04-04T03:25:49.144Z,9.37
2019-04-04T03:26:53.636Z,9.34
2019-04-04T03:27:58.417Z,9.34
2019-04-04T03:29:05.631Z,9.30
2019-04-04T03:30:13.461Z,9.26
2019-04-04T03:31:13.956Z,9.22
2019-04-04T03:32:17.825Z,9.21
2019-04-04T03:33:28.814Z,9.21
2019-04-04T03:34:26.799Z,9.21
2019-04-04T03:35:30.353Z,9.21
2019-04-04T03:36:34.063Z,9.21
2019-04-04T03:37:40.451Z,9.21
2019-04-04T03:38:46.063Z,9.21
2019-04-04T03:39:51.957Z,9.21
2019-04-04T03:40:57.254Z,9.12
2019-04-04T03:41:59.428Z,9.10
2019-04-04T03:43:03.080Z,9.06
2019-04-04T03:44:06.708Z,9.01
2019-04-04T03:45:10.566Z,9.06
2019-04-04T03:46:14.248Z,9.06
2019-04-04T03:47:17.921Z,9.08
2019-04-04T03:48:21.550Z,9.06
2019-04-04T03:49:25.183Z,8.94
2019-04-04T03:50:30.223Z,8.88
2019-04-04T03:51:37.129Z,8.86
2019-04-04T03:52:43.123Z,8.76
2019-04-04T03:53:50.266Z,8.76
2019-04-04T03:54:56.356Z,8.60
2019-04-04T03:56:01.198Z,8.41
2019-04-04T03:57:04.937Z,8.24
2019-04-04T03:58:08.657Z,8.13
2019-04-04T03:59:12.317Z,8.05
2019-04-04T04:00:30.232Z,7.96
2019-04-04T04:01:34.377Z,7.80
2019-04-04T04:02:38.072Z,7.69
2019-04-04T04:03:41.641Z,7.66
2019-04-04T04:04:45.836Z,7.61
2019-04-04T04:05:49.631Z,7.55
2019-04-04T04:06:53.293Z,7.50
2019-04-04T04:07:57.060Z,7.39
2019-04-04T04:09:01.070Z,7.38
2019-04-04T04:10:06.578Z,7.33
2019-04-04T04:11:10.387Z,7.32
2019-04-04T04:12:14.059Z,7.35
2019-04-04T04:13:17.690Z,7.35
2019-04-04T04:14:22.781Z,7.37
2019-04-04T04:15:30.297Z,7.35
2019-04-04T04:16:35.921Z,7.20
2019-04-04T04:17:38.285Z,7.14
2019-04-04T04:18:41.838Z,7.22
2019-04-04T04:19:45.511Z,7.28
2019-04-04T04:20:49.083Z,7.20
2019-04-04T04:21:52.812Z,7.13
2019-04-04T04:22:56.417Z,7.11
2019-04-04T04:24:00.054Z,7.20
2019-04-04T04:25:04.301Z,7.31
2019-04-04T04:26:09.503Z,7.33
2019-04-04T04:27:15.522Z,7.32
2019-04-04T04:28:20.153Z,7.28
2019-04-04T04:29:24.175Z,7.35
2019-04-04T04:30:27.801Z,7.34
2019-04-04T04:31:31.424Z,7.38
2019-04-04T04:32:37.204Z,7.41
2019-04-04T04:33:40.476Z,7.39
2019-04-04T04:34:44.164Z,7.41
2019-04-04T04:35:47.811Z,7.43
2019-04-04T04:36:51.784Z,7.42
2019-04-04T04:37:55.410Z,7.38
2019-04-04T04:39:00.226Z,7.33
2019-04-04T04:40:04.501Z,7.31
2019-04-04T04:41:08.210Z,7.36
2019-04-04T04:42:12.143Z,7.39
2019-04-04T04:43:16.088Z,7.37
2019-04-04T04:44:19.809Z,7.36
2019-04-04T04:45:23.452Z,7.34
2019-04-04T04:46:27.135Z,7.39
2019-04-04T04:47:30.804Z,7.40
2019-04-04T04:48:35.965Z,7.42
2019-04-04T04:49:39.571Z,7.43
2019-04-04T04:50:43.120Z,7.42
2019-04-04T04:51:53.718Z,7.48
2019-04-04T04:52:57.365Z,7.43
2019-04-04T04:54:01.082Z,7.47
2019-04-04T04:55:05.329Z,7.50
2019-04-04T04:56:08.968Z,7.43
2019-04-04T04:57:28.149Z,7.37
2019-04-04T04:58:18.135Z,7.27
2019-04-04T04:59:21.777Z,7.23
2019-04-04T05:00:27.707Z,7.17
2019-04-04T05:01:30.885Z,7.11
2019-04-04T05:02:34.475Z,7.13
2019-04-04T05:03:38.127Z,7.07
2019-04-04T05:04:41.864Z,7.06
2019-04-04T05:05:45.559Z,7.19
2019-04-04T05:06:49.207Z,7.23
2019-04-04T05:07:54.879Z,7.27
2019-04-04T05:08:58.433Z,7.16
2019-04-04T05:10:02.093Z,7.11
2019-04-04T05:11:05.847Z,7.15
2019-04-04T05:12:09.489Z,7.10
2019-04-04T05:13:13.181Z,7.11
2019-04-04T05:14:16.855Z,7.03
2019-04-04T05:15:21.367Z,6.97
2019-04-04T05:16:25.133Z,6.90
2019-04-04T05:17:28.771Z,6.89
2019-04-04T05:18:32.553Z,7.00
2019-04-04T05:19:36.203Z,7.05
2019-04-04T05:20:39.866Z,7.12
2019-04-04T05:21:43.496Z,7.12
2019-04-04T05:22:47.164Z,7.11
2019-04-04T05:23:50.879Z,7.05
2019-04-04T05:25:07.418Z,7.04
2019-04-04T05:26:02.133Z,6.96
2019-04-04T05:27:05.995Z,6.91
2019-04-04T05:28:10.737Z,6.89
2019-04-04T05:29:15.195Z,6.92
2019-04-04T05:30:20.349Z,6.95
2019-04-04T05:31:24.203Z,7.00
2019-04-04T05:32:27.914Z,7.01
2019-04-04T05:33:31.776Z,7.01
2019-04-04T05:34:35.398Z,6.99
2019-04-04T05:35:39.380Z,6.97
2019-04-04T05:36:43.029Z,7.00
2019-04-04T05:37:46.727Z,7.02
2019-04-04T05:38:50.674Z,6.97
2019-04-04T05:39:55.416Z,7.02
2019-04-04T05:40:59.276Z,7.00
2019-04-04T05:42:02.897Z,6.97
2019-04-04T05:43:06.553Z,7.01
2019-04-04T05:44:10.412Z,7.01
2019-04-04T05:45:15.122Z,6.99
2019-04-04T05:46:19.633Z,7.06
2019-04-04T05:47:23.937Z,7.15
2019-04-04T05:48:29.190Z,7.19
2019-04-04T05:49:33.447Z,7.10
2019-04-04T05:50:37.148Z,7.02
2019-04-04T05:51:40.901Z,7.09
2019-04-04T05:52:44.523Z,7.08
2019-04-04T05:53:48.276Z,7.06
2019-04-04T05:54:51.946Z,7.06
2019-04-04T05:55:55.643Z,7.22
2019-04-04T05:56:59.192Z,7.28
2019-04-04T05:58:02.851Z,7.31
2019-04-04T05:59:06.527Z,7.40
2019-04-04T06:00:12.230Z,7.43
2019-04-04T06:01:17.656Z,7.37
2019-04-04T06:02:21.359Z,7.35
2019-04-04T06:03:24.998Z,7.37
2019-04-04T06:04:28.669Z,7.53
2019-04-04T06:05:32.315Z,7.68
2019-04-04T06:06:36.004Z,7.75
2019-04-04T06:07:39.638Z,7.74
2019-04-04T06:08:43.495Z,7.78
2019-04-04T06:09:47.165Z,7.87
2019-04-04T06:10:50.899Z,7.88
2019-04-04T06:11:54.882Z,7.86
2019-04-04T06:12:58.454Z,7.99
2019-04-04T06:14:02.302Z,8.04
2019-04-04T06:15:07.226Z,8.09
2019-04-04T06:16:10.893Z,8.13
2019-04-04T06:17:15.024Z,8.05
2019-04-04T06:18:18.595Z,8.04
2019-04-04T06:19:22.262Z,8.12
2019-04-04T06:20:26.002Z,8.18
2019-04-04T06:21:29.694Z,8.19
2019-04-04T06:22:33.369Z,8.22
2019-04-04T06:23:37.102Z,8.29
2019-04-04T06:24:40.724Z,8.39
2019-04-04T06:25:44.502Z,8.38
2019-04-04T06:26:48.581Z,8.33
2019-04-04T06:27:52.239Z,8.53
2019-04-04T06:28:56.283Z,8.57
2019-04-04T06:29:59.917Z,8.52
2019-04-04T06:31:03.620Z,8.43
2019-04-04T06:32:08.219Z,8.40
2019-04-04T06:33:11.910Z,8.52
2019-04-04T06:34:15.661Z,8.62
2019-04-04T06:35:19.305Z,8.67
2019-04-04T06:36:22.965Z,8.70
2019-04-04T06:37:28.100Z,8.70
2019-04-04T06:38:31.877Z,8.68
2019-04-04T06:39:35.507Z,8.68
2019-04-04T06:40:40.788Z,8.66
2019-04-04T06:41:44.441Z,8.82
2019-04-04T06:42:48.073Z,8.85
2019-04-04T06:43:51.670Z,8.90
2019-04-04T06:44:55.305Z,8.99
2019-04-04T06:46:01.764Z,9.05
2019-04-04T06:47:05.439Z,9.04
2019-04-04T06:48:09.068Z,9.16
2019-04-04T06:49:12.767Z,9.29
2019-04-04T06:50:16.398Z,9.29
2019-04-04T06:51:20.051Z,9.35
2019-04-04T06:52:23.705Z,9.49
2019-04-04T06:53:27.378Z,9.47
2019-04-04T06:54:31.054Z,9.32
2019-04-04T06:55:39.763Z,9.21
2019-04-04T06:56:40.064Z,9.19
2019-04-04T06:57:43.722Z,9.28
2019-04-04T06:58:47.362Z,9.37
2019-04-04T06:59:51.368Z,9.45
2019-04-04T07:00:55.092Z,9.44
2019-04-04T07:01:58.739Z,9.49
2019-04-04T07:03:02.397Z,9.54
2019-04-04T07:04:06.062Z,9.54
2019-04-04T07:05:10.935Z,9.67
2019-04-04T07:06:14.673Z,9.69
2019-04-04T07:07:18.311Z,9.72
2019-04-04T07:08:21.973Z,9.73
2019-04-04T07:09:25.629Z,9.79
2019-04-04T07:10:29.653Z,9.82
2019-04-04T07:11:35.191Z,9.82
2019-04-04T07:12:39.535Z,9.92
2019-04-04T07:13:43.228Z,9.92
2019-04-04T07:14:49.529Z,9.87
2019-04-04T07:16:06.025Z,10.00
2019-04-04T07:16:58.728Z,10.06
2019-04-04T07:18:02.512Z,10.06
2019-04-04T07:19:08.123Z,9.98
2019-04-04T07:20:12.321Z,9.98
2019-04-04T07:21:16.009Z,9.96
2019-04-04T07:22:20.578Z,9.95
2019-04-04T07:23:27.423Z,9.95
2019-04-04T07:24:31.155Z,10.01
2019-04-04T07:25:35.948Z,10.06
2019-04-04T07:26:39.769Z,10.16
2019-04-04T07:27:45.362Z,10.16
2019-04-04T07:28:51.974Z,10.17
2019-04-04T07:29:56.569Z,10.36
2019-04-04T07:31:01.751Z,10.35
2019-04-04T07:32:07.286Z,10.33
2019-04-04T07:33:12.630Z,10.42
2019-04-04T07:34:16.176Z,10.42
2019-04-04T07:35:21.167Z,10.52
2019-04-04T07:36:24.906Z,10.52
2019-04-04T07:37:28.601Z,10.51
2019-04-04T07:38:34.951Z,10.67
2019-04-04T07:39:37.592Z,10.67
2019-04-04T07:40:41.232Z,10.79
2019-04-04T07:41:45.151Z,10.79
2019-04-04T07:42:48.981Z,10.96
2019-04-04T07:43:52.625Z,10.96
2019-04-04T07:44:56.282Z,10.88
2019-04-04T07:46:05.206Z,10.88
2019-04-04T07:47:05.738Z,11.11
2019-04-04T07:48:12.105Z,11.11
2019-04-04T07:49:14.808Z,11.11
2019-04-04T07:50:18.459Z,11.11
2019-04-04T07:51:22.159Z,11.26
2019-04-04T07:52:25.795Z,11.26
2019-04-04T07:53:29.552Z,11.37
2019-04-04T07:54:33.223Z,11.37
2019-04-04T07:55:36.887Z,11.76
2019-04-04T07:56:40.593Z,11.80
2019-04-04T07:57:44.248Z,12.06
2019-04-04T07:58:47.896Z,12.06
2019-04-04T07:59:51.531Z,12.13
2019-04-04T08:00:55.211Z,12.13
2019-04-04T08:01:58.880Z,12.30
2019-04-04T08:03:02.517Z,12.37
2019-04-04T08:04:06.767Z,12.52
2019-04-04T08:05:13.208Z,12.56
2019-04-04T08:06:16.145Z,12.61
2019-04-04T08:07:19.850Z,12.81
2019-04-04T08:08:23.481Z,12.99
2019-04-04T08:09:27.191Z,13.14
2019-04-04T08:10:30.841Z,13.21
2019-04-04T08:11:34.471Z,13.28
2019-04-04T08:12:38.129Z,13.36
2019-04-04T08:13:41.831Z,13.41
2019-04-04T08:14:45.654Z,13.51
2019-04-04T08:15:49.322Z,13.58
2019-04-04T08:16:53.052Z,13.65
2019-04-04T08:17:56.746Z,13.89
2019-04-04T08:19:00.346Z,14.02
2019-04-04T08:20:05.815Z,14.09
2019-04-04T08:21:09.465Z,14.09
2019-04-04T08:22:13.167Z,14.28
2019-04-04T08:23:16.894Z,14.35
2019-04-04T08:24:20.547Z,14.46
2019-04-04T08:25:24.161Z,14.43
2019-04-04T08:26:27.827Z,14.43
2019-04-04T08:27:31.568Z,14.58
2019-04-04T08:28:35.329Z,14.76
2019-04-04T08:29:39.030Z,14.76
2019-04-04T08:30:42.730Z,14.86
2019-04-04T08:31:46.395Z,15.00
2019-04-04T08:32:49.960Z,15.13
2019-04-04T08:33:53.689Z,15.19
2019-04-04T08:34:57.372Z,15.13
2019-04-04T08:36:06.138Z,15.28
2019-04-04T08:37:06.420Z,15.47
2019-04-04T08:38:10.044Z,15.73
2019-04-04T08:39:15.165Z,15.95
2019-04-04T08:40:18.835Z,16.20
2019-04-04T08:41:22.497Z,16.08
2019-04-04T08:42:26.211Z,16.37
2019-04-04T08:43:29.810Z,16.83
2019-04-04T08:44:33.515Z,17.24
2019-04-04T08:45:37.182Z,17.55
2019-04-04T08:46:41.223Z,17.75
2019-04-04T08:47:44.841Z,18.14
2019-04-04T08:48:48.981Z,18.33
2019-04-04T08:49:52.831Z,18.55
2019-04-04T08:50:56.548Z,18.73
2019-04-04T08:52:00.177Z,19.02
2019-04-04T08:53:03.871Z,19.37
2019-04-04T08:54:07.529Z,19.78
2019-04-04T08:55:11.360Z,20.08
2019-04-04T08:56:15.390Z,20.45
2019-04-04T08:57:19.038Z,20.96
2019-04-04T08:58:22.681Z,21.38
2019-04-04T08:59:26.322Z,21.70
2019-04-04T09:00:30.381Z,21.65
2019-04-04T09:01:34.116Z,21.85
2019-04-04T09:02:37.759Z,22.10
2019-04-04T09:03:41.429Z,22.37
2019-04-04T09:04:45.139Z,22.36
2019-04-04T09:05:48.866Z,22.63
2019-04-04T09:06:52.576Z,22.61
2019-04-04T09:07:56.207Z,22.80
2019-04-04T09:08:59.906Z,23.06
2019-04-04T09:10:04.352Z,23.23
2019-04-04T09:11:08.013Z,23.15
2019-04-04T09:12:11.684Z,23.33
2019-04-04T09:13:16.837Z,23.33
2019-04-04T09:14:20.593Z,23.32
2019-04-04T09:15:24.261Z,23.33
2019-04-04T09:16:29.184Z,23.54
2019-04-04T09:17:32.928Z,23.69
2019-04-04T09:18:37.696Z,23.66
2019-04-04T09:19:41.890Z,23.78
2019-04-04T09:20:45.515Z,23.91
2019-04-04T09:21:49.224Z,23.96
2019-04-04T09:22:52.861Z,23.70
2019-04-04T09:23:56.524Z,23.81
2019-04-04T09:25:01.333Z,24.15
2019-04-04T09:26:06.316Z,24.07
2019-04-04T09:27:10.296Z,23.91
2019-04-04T09:28:14.304Z,24.06
2019-04-04T09:29:17.992Z,24.14
2019-04-04T09:30:22.755Z,23.98
2019-04-04T09:31:26.480Z,24.05
2019-04-04T09:32:30.125Z,24.57
2019-04-04T09:33:33.788Z,24.96
2019-04-04T09:34:37.499Z,25.30
2019-04-04T09:35:41.248Z,25.16
2019-04-04T09:36:44.891Z,24.45
2019-04-04T09:37:48.568Z,24.43
2019-04-04T09:38:52.241Z,24.77
2019-04-04T09:39:56.311Z,25.09
2019-04-04T09:41:00.007Z,25.17
2019-04-04T09:42:03.815Z,25.29
2019-04-04T09:43:07.554Z,25.14
2019-04-04T09:44:11.188Z,25.11
2019-04-04T09:45:14.854Z,24.85
2019-04-04T09:46:18.689Z,24.81
2019-04-04T09:47:22.329Z,24.86
2019-04-04T09:48:26.068Z,25.23
2019-04-04T09:49:29.807Z,25.78
2019-04-04T09:50:33.435Z,26.05
2019-04-04T09:51:37.212Z,26.07
2019-04-04T09:52:40.953Z,25.81
2019-04-04T09:53:52.855Z,25.97
2019-04-04T09:54:50.271Z,25.74
2019-04-04T09:55:53.950Z,25.58
2019-04-04T09:56:57.739Z,25.41
2019-04-04T09:58:01.429Z,25.48
2019-04-04T09:59:05.205Z,25.53
2019-04-04T10:00:11.885Z,25.62
2019-04-04T10:01:15.686Z,25.71
2019-04-04T10:02:20.214Z,25.72
2019-04-04T10:03:23.864Z,25.81
2019-04-04T10:04:27.582Z,26.02
2019-04-04T10:05:31.518Z,26.32
2019-04-04T10:06:35.232Z,26.25
2019-04-04T10:07:39.009Z,26.35
2019-04-04T10:08:42.688Z,26.42
2019-04-04T10:09:46.350Z,25.82
2019-04-04T10:10:51.555Z,25.99
2019-04-04T10:11:56.667Z,26.09
2019-04-04T10:13:04.527Z,25.70
2019-04-04T10:14:08.296Z,24.91
2019-04-04T10:15:12.521Z,25.12
2019-04-04T10:16:16.237Z,25.23
2019-04-04T10:17:19.887Z,25.30
2019-04-04T10:18:23.692Z,25.20
2019-04-04T10:19:27.401Z,25.25
2019-04-04T10:20:31.138Z,25.26
2019-04-04T10:21:34.902Z,25.45
2019-04-04T10:22:38.708Z,25.68
2019-04-04T10:23:42.482Z,25.93
2019-04-04T10:24:46.188Z,25.62
2019-04-04T10:25:49.974Z,25.60
2019-04-04T10:26:53.664Z,25.79
2019-04-04T10:27:57.333Z,26.23
2019-04-04T10:29:01.164Z,26.53
2019-04-04T10:30:07.290Z,26.66
2019-04-04T10:31:10.942Z,26.79
2019-04-04T10:32:14.609Z,26.78
2019-04-04T10:33:18.237Z,26.91
2019-04-04T10:34:21.853Z,27.28
2019-04-04T10:35:25.506Z,27.30
2019-04-04T10:36:29.173Z,27.60
2019-04-04T10:37:32.811Z,27.89
2019-04-04T10:38:36.475Z,27.89
2019-04-04T10:39:40.149Z,27.89
2019-04-04T10:40:43.848Z,28.10
2019-04-04T10:41:47.410Z,27.83
2019-04-04T10:42:51.133Z,27.69
2019-04-04T10:43:54.893Z,27.40
2019-04-04T10:44:58.564Z,27.58
2019-04-04T10:46:02.303Z,27.69
2019-04-04T10:47:06.749Z,27.81
2019-04-04T10:48:10.321Z,27.92
2019-04-04T10:49:14.074Z,28.19
2019-04-04T10:50:17.879Z,28.22
2019-04-04T10:51:21.483Z,28.43
2019-04-04T10:52:25.160Z,28.56
2019-04-04T10:53:28.867Z,28.80
2019-04-04T10:54:32.502Z,29.05
2019-04-04T10:55:36.150Z,29.27
2019-04-04T10:56:39.846Z,29.65
2019-04-04T10:57:43.483Z,29.90
2019-04-04T10:58:47.118Z,29.54
2019-04-04T10:59:54.571Z,29.37
2019-04-04T11:00:56.608Z,29.43
2019-04-04T11:02:00.950Z,29.40
2019-04-04T11:03:04.803Z,29.71
2019-04-04T11:04:08.434Z,29.94
2019-04-04T11:05:12.695Z,29.33
2019-04-04T11:06:16.411Z,28.26
2019-04-04T11:07:20.061Z,27.27
2019-04-04T11:08:23.695Z,26.90
2019-04-04T11:09:27.339Z,26.42
2019-04-04T11:10:31.049Z,25.72
2019-04-04T11:11:35.047Z,25.37
2019-04-04T11:12:38.686Z,25.21
2019-04-04T11:13:42.427Z,24.99
2019-04-04T11:14:46.129Z,24.57
2019-04-04T11:15:49.796Z,24.53
2019-04-04T11:16:53.439Z,24.25
2019-04-04T11:17:57.161Z,24.08
2019-04-04T11:19:00.833Z,23.99
2019-04-04T11:20:06.483Z,23.94
2019-04-04T11:21:10.531Z,23.89
2019-04-04T11:22:14.160Z,23.88
2019-04-04T11:23:17.742Z,23.96
2019-04-04T11:24:21.307Z,23.89
2019-04-04T11:25:24.984Z,23.84
2019-04-04T11:26:28.677Z,23.93
2019-04-04T11:27:32.323Z,24.02
2019-04-04T11:28:41.882Z,24.32
2019-04-04T11:29:45.661Z,24.82
2019-04-04T11:30:49.337Z,25.86
2019-04-04T11:31:53.012Z,26.88
2019-04-04T11:32:56.662Z,27.48
2019-04-04T11:34:00.174Z,28.07
2019-04-04T11:35:04.628Z,28.18
2019-04-04T11:36:08.279Z,28.58
2019-04-04T11:37:11.986Z,28.90
2019-04-04T11:38:15.713Z,28.93
2019-04-04T11:39:19.349Z,29.27
2019-04-04T11:40:23.041Z,29.35
2019-04-04T11:41:26.713Z,29.29
2019-04-04T11:42:30.407Z,29.25
2019-04-04T11:43:34.030Z,28.73
2019-04-04T11:44:37.795Z,28.48
2019-04-04T11:45:41.458Z,28.03
2019-04-04T11:46:45.109Z,27.58
2019-04-04T11:47:48.860Z,27.21
2019-04-04T11:48:52.490Z,27.30
2019-04-04T11:49:56.198Z,27.22
2019-04-04T11:50:59.904Z,26.82
2019-04-04T11:52:03.543Z,26.17
2019-04-04T11:53:07.228Z,25.65
2019-04-04T11:54:11.006Z,25.36
2019-04-04T11:55:14.680Z,25.05
2019-04-04T11:56:18.323Z,24.77
2019-04-04T11:57:23.920Z,24.52
2019-04-04T11:58:27.599Z,24.33
2019-04-04T11:59:31.319Z,23.88
2019-04-04T12:00:36.602Z,23.45
2019-04-04T12:01:41.922Z,23.25
2019-04-04T12:02:45.662Z,22.95
2019-04-04T12:03:49.355Z,22.81
2019-04-04T12:04:53.327Z,22.63
2019-04-04T12:05:57.046Z,22.32
2019-04-04T12:07:00.712Z,22.20
2019-04-04T12:08:04.428Z,21.91
2019-04-04T12:09:08.557Z,21.91
2019-04-04T12:10:12.687Z,21.86
2019-04-04T12:11:16.360Z,21.90
2019-04-04T12:12:20.103Z,22.23
2019-04-04T12:13:23.756Z,22.60
2019-04-04T12:14:27.513Z,22.80
2019-04-04T12:15:31.256Z,22.78
2019-04-04T12:16:35.001Z,22.52
2019-04-04T12:17:38.714Z,22.26
2019-04-04T12:18:42.393Z,22.18
2019-04-04T12:19:46.134Z,22.07
2019-04-04T12:20:49.874Z,22.03
2019-04-04T12:21:53.579Z,21.85
2019-04-04T12:22:57.326Z,21.70
2019-04-04T12:24:01.043Z,21.61
2019-04-04T12:25:06.144Z,21.63
2019-04-04T12:26:10.167Z,21.70
2019-04-04T12:27:13.875Z,21.73
2019-04-04T12:28:17.545Z,21.74
2019-04-04T12:29:21.240Z,21.74
2019-04-04T12:30:24.986Z,21.74
2019-04-04T12:31:28.719Z,21.87
2019-04-04T12:32:32.458Z,22.10
2019-04-04T12:33:36.120Z,22.20
2019-04-04T12:34:39.812Z,22.23
2019-04-04T12:35:43.578Z,22.26
2019-04-04T12:36:47.258Z,22.42
2019-04-04T12:37:50.974Z,22.48
2019-04-04T12:38:54.725Z,22.33
2019-04-04T12:39:58.396Z,22.18
2019-04-04T12:41:02.128Z,21.90
2019-04-04T12:42:05.860Z,21.85
2019-04-04T12:43:09.504Z,21.81
2019-04-04T12:44:13.229Z,21.78
2019-04-04T12:45:17.054Z,21.69
2019-04-04T12:46:20.748Z,21.50
2019-04-04T12:47:24.455Z,21.36
2019-04-04T12:48:28.090Z,21.34
2019-04-04T12:49:31.727Z,21.31
2019-04-04T12:50:35.410Z,21.43
2019-04-04T12:51:39.075Z,21.49
2019-04-04T12:52:42.728Z,21.54
2019-04-04T12:53:46.371Z,21.55
2019-04-04T12:54:50.026Z,21.77
2019-04-04T12:55:54.342Z,21.95
2019-04-04T12:56:58.114Z,21.73
2019-04-04T12:58:01.768Z,21.90
2019-04-04T12:59:05.449Z,22.52
2019-04-04T13:00:10.420Z,23.16
2019-04-04T13:01:14.027Z,23.61
2019-04-04T13:02:17.742Z,24.33
2019-04-04T13:03:22.596Z,24.94
2019-04-04T13:04:31.487Z,25.37
2019-04-04T13:05:31.726Z,25.79
2019-04-04T13:06:35.395Z,26.25
2019-04-04T13:07:39.136Z,26.67
2019-04-04T13:08:42.804Z,26.91
2019-04-04T13:09:46.537Z,26.92
2019-04-04T13:10:50.295Z,26.98
2019-04-04T13:11:54.051Z,27.11
2019-04-04T13:12:57.798Z,26.76
2019-04-04T13:14:01.414Z,26.19
2019-04-04T13:15:10.353Z,25.89
2019-04-04T13:16:14.045Z,25.81
2019-04-04T13:17:17.720Z,25.41
2019-04-04T13:18:21.282Z,25.55
2019-04-04T13:19:24.878Z,25.78
2019-04-04T13:20:28.548Z,25.99
2019-04-04T13:21:32.236Z,26.05
2019-04-04T13:22:36.839Z,26.03
2019-04-04T13:23:40.500Z,25.87
2019-04-04T13:24:44.078Z,25.67
2019-04-04T13:25:47.757Z,25.70
2019-04-04T13:26:51.441Z,25.75
2019-04-04T13:27:55.094Z,25.46
2019-04-04T13:28:58.663Z,25.05
2019-04-04T13:30:02.317Z,24.71
2019-04-04T13:31:05.963Z,24.34
2019-04-04T13:32:09.635Z,24.09
2019-04-04T13:33:13.286Z,23.97
2019-04-04T13:34:16.914Z,23.67
2019-04-04T13:35:20.538Z,23.37
2019-04-04T13:36:24.248Z,23.08
2019-04-04T13:37:27.956Z,22.89
2019-04-04T13:38:31.625Z,22.93
2019-04-04T13:39:35.302Z,23.15
2019-04-04T13:40:45.429Z,23.19
2019-04-04T13:41:44.300Z,23.06
2019-04-04T13:42:48.007Z,23.05
2019-04-04T13:43:54.373Z,23.23
2019-04-04T13:44:58.031Z,23.29
2019-04-04T13:46:02.048Z,23.16
2019-04-04T13:47:05.730Z,22.82
2019-04-04T13:48:10.713Z,22.67
2019-04-04T13:49:14.861Z,22.68
2019-04-04T13:50:20.518Z,22.59
2019-04-04T13:51:25.565Z,22.42
2019-04-04T13:52:29.303Z,22.59
2019-04-04T13:53:33.006Z,23.07
2019-04-04T13:54:36.678Z,23.41